Time;durP1;ratioP1;P1;durP2;ratioP2;P2;SDS_P1;SDS_P2;PMS_P1;PMS_P2;Temp;Humidity;BMP_temperature;BMP_pressure;BME280_temperature;BME280_humidity;BME280_pressure;Samples;Min_cycle;Max_cycle;Signal;HPM_P1;HPM_P2
2021/04/25 00:00:50;;;;;;;8.02;6.00;;;;;;;11.95;52.90;101342.50;4903103;28;128174;-58
2021/04/25 00:03:16;;;;;;;8.38;6.20;;;;;;;11.92;53.02;101349.22;4903562;28;128385;-58
2021/04/25 00:05:43;;;;;;;8.57;5.88;;;;;;;11.87;53.07;101345.66;4904399;28;97790;-58
2021/04/25 00:08:09;;;;;;;10.23;6.70;;;;;;;11.85;52.64;101347.81;4904330;28;99084;-60
2021/04/25 00:10:35;;;;;;;9.68;6.22;;;;;;;11.80;53.35;101351.25;4903551;28;102524;-58
2021/04/25 00:13:01;;;;;;;9.65;6.38;;;;;;;11.76;53.22;101350.13;4904391;28;97935;-59
2021/04/25 00:15:27;;;;;;;8.98;6.20;;;;;;;11.71;53.18;101355.44;4901639;28;118186;-58
2021/04/25 00:17:53;;;;;;;7.90;5.97;;;;;;;11.68;53.74;101361.38;4901453;28;118548;-59
2021/04/25 00:20:20;;;;;;;7.25;5.22;;;;;;;11.63;53.55;101354.03;4903170;28;127969;-61
2021/04/25 00:22:46;;;;;;;8.68;5.65;;;;;;;11.60;53.88;101359.13;4902400;28;98072;-59
2021/04/25 00:25:13;;;;;;;10.50;5.85;;;;;;;11.54;53.60;101361.75;4902808;28;98105;-59
2021/04/25 00:27:41;;;;;;;9.50;5.80;;;;;;;11.53;54.04;101357.41;4903775;28;98640;-59
2021/04/25 00:30:09;;;;;;;8.48;5.75;;;;;;;11.49;54.03;101355.47;4902797;28;116974;-59
2021/04/25 00:32:35;;;;;;;8.15;5.63;;;;;;;11.46;53.88;101358.66;4903779;28;104667;-61
2021/04/25 00:35:01;;;;;;;8.43;5.93;;;;;;;11.44;53.75;101350.03;4903707;28;97819;-59
2021/04/25 00:37:27;;;;;;;8.05;5.80;;;;;;;11.41;54.22;101356.72;4903565;28;98231;-59
2021/04/25 00:39:53;;;;;;;8.07;6.00;;;;;;;11.38;54.46;101356.41;4902237;28;98087;-61
2021/04/25 00:42:19;;;;;;;10.45;5.93;;;;;;;11.36;53.86;101353.97;4903080;28;127187;-61
2021/04/25 00:44:45;;;;;;;9.90;5.80;;;;;;;11.31;53.92;101352.00;4903298;28;118574;-61
2021/04/25 00:47:11;;;;;;;8.57;5.78;;;;;;;11.29;53.68;101348.75;4903957;28;98621;-59
2021/04/25 00:49:38;;;;;;;9.40;5.90;;;;;;;11.28;54.01;101349.84;4902900;28;112994;-61
2021/04/25 00:52:05;;;;;;;9.15;6.15;;;;;;;11.25;54.05;101339.53;4903056;28;98653;-59
2021/04/25 00:54:31;;;;;;;10.55;6.53;;;;;;;11.22;53.73;101337.31;4903884;28;97914;-59
2021/04/25 00:56:58;;;;;;;10.55;6.22;;;;;;;11.18;54.03;101338.88;4902536;28;126819;-59
2021/04/25 00:59:27;;;;;;;8.90;6.00;;;;;;;11.16;54.35;101335.63;4901992;28;98810;-61
2021/04/25 01:01:53;;;;;;;8.52;5.60;;;;;;;11.14;53.95;101336.94;4884184;28;99861;-59
2021/04/25 01:04:19;;;;;;;8.25;5.78;;;;;;;11.09;54.18;101335.00;4900577;28;116819;-59
2021/04/25 01:06:45;;;;;;;9.57;5.80;;;;;;;11.09;53.62;101336.88;4902644;28;106566;-59
2021/04/25 01:09:12;;;;;;;10.57;6.03;;;;;;;11.05;53.83;101340.09;4902829;28;126681;-59
2021/04/25 01:11:38;;;;;;;7.78;5.50;;;;;;;11.03;54.31;101338.69;4902272;28;128111;-59
2021/04/25 01:14:04;;;;;;;9.68;6.07;;;;;;;11.00;53.77;101340.03;4903207;28;105670;-58
2021/04/25 01:16:30;;;;;;;7.88;5.85;;;;;;;10.96;54.41;101332.66;4901713;28;127521;-58
2021/04/25 01:18:56;;;;;;;8.88;6.20;;;;;;;10.95;54.78;101342.63;4916498;28;128280;-59
2021/04/25 01:21:23;;;;;;;9.63;6.30;;;;;;;10.93;53.57;101339.38;4901973;28;127778;-58
2021/04/25 01:23:49;;;;;;;11.50;6.63;;;;;;;10.90;53.95;101347.16;4918137;28;97825;-61
2021/04/25 01:26:15;;;;;;;9.45;6.63;;;;;;;10.88;54.45;101350.06;4902040;28;128252;-61
2021/04/25 01:28:42;;;;;;;9.52;6.25;;;;;;;10.85;53.91;101342.50;4901812;28;128147;-59
2021/04/25 01:31:08;;;;;;;10.70;6.40;;;;;;;10.81;53.94;101344.06;4902129;28;98457;-61
2021/04/25 01:33:34;;;;;;;8.63;6.03;;;;;;;10.81;54.09;101344.06;4902813;28;111648;-59
2021/04/25 01:36:02;;;;;;;10.10;5.88;;;;;;;10.78;54.13;101337.25;4916954;28;99894;-59
2021/04/25 01:38:29;;;;;;;9.27;5.80;;;;;;;10.77;54.06;101337.53;4902190;28;98397;-58
2021/04/25 01:40:55;;;;;;;8.32;6.10;;;;;;;10.78;54.06;101341.84;4902469;28;97836;-60
2021/04/25 01:43:21;;;;;;;7.97;5.88;;;;;;;10.77;54.04;101337.53;4903171;28;97809;-61
2021/04/25 01:45:48;;;;;;;9.48;6.10;;;;;;;10.78;53.91;101341.84;4902158;28;127558;-59
2021/04/25 01:48:14;;;;;;;9.02;5.60;;;;;;;10.76;53.73;101341.25;4903371;28;98871;-58
2021/04/25 01:50:40;;;;;;;8.27;6.07;;;;;;;10.74;54.16;101336.13;4901354;28;128140;-61
2021/04/25 01:53:07;;;;;;;8.23;5.45;;;;;;;10.75;53.92;101336.94;4902435;28;117292;-58
2021/04/25 01:55:36;;;;;;;8.68;5.55;;;;;;;10.72;53.69;101337.44;4902698;28;98412;-59
2021/04/25 01:58:03;;;;;;;6.80;5.30;;;;;;;10.68;53.90;101339.81;4897395;28;110939;-61
2021/04/25 02:00:41;;;;;;;8.63;5.53;;;;;;;10.66;53.77;101333.84;4864902;28;117777;-58
2021/04/25 02:03:08;;;;;;;7.05;5.05;;;;;;;10.65;54.05;101336.78;4883812;28;98320;-61
2021/04/25 02:05:35;;;;;;;8.63;5.60;;;;;;;10.61;54.66;101331.09;4882892;28;98865;-59
2021/04/25 02:08:01;;;;;;;7.40;5.20;;;;;;;10.60;53.95;101340.22;4883694;28;98898;-59
2021/04/25 02:10:27;;;;;;;6.95;4.95;;;;;;;10.57;53.99;101343.41;4882859;28;116954;-61
2021/04/25 02:12:53;;;;;;;8.05;5.28;;;;;;;10.54;54.33;101343.91;4884288;28;97976;-58
2021/04/25 02:15:19;;;;;;;7.78;5.43;;;;;;;10.50;54.01;101346.28;4906532;28;98123;-61
2021/04/25 02:17:46;;;;;;;7.80;5.13;;;;;;;10.48;54.54;101337.59;4922836;28;116834;-61
2021/04/25 02:20:13;;;;;;;7.88;5.03;;;;;;;10.43;53.94;101332.16;4908194;28;111939;-59
2021/04/25 02:22:39;;;;;;;7.60;4.95;;;;;;;10.42;54.53;101341.31;4909369;28;97974;-61
2021/04/25 02:25:06;;;;;;;7.15;4.80;;;;;;;10.40;54.25;101324.53;4904081;28;98460;-61
2021/04/25 02:27:32;;;;;;;7.85;5.38;;;;;;;10.38;53.98;101329.38;4888273;28;116343;-61
2021/04/25 02:29:58;;;;;;;7.03;4.72;;;;;;;10.36;54.89;101326.09;4888806;28;127319;-61
2021/04/25 02:32:24;;;;;;;8.00;4.60;;;;;;;10.34;55.00;101327.41;4889297;28;118599;-61
2021/04/25 02:34:50;;;;;;;7.25;4.95;;;;;;;10.31;54.25;101324.13;4899329;28;122393;-61
2021/04/25 02:37:17;;;;;;;6.88;4.60;;;;;;;10.31;54.72;101324.13;4908380;28;114770;-61
2021/04/25 02:39:43;;;;;;;6.28;4.85;;;;;;;10.30;54.32;101321.69;4908057;28;112953;-58
2021/04/25 02:42:09;;;;;;;8.23;4.85;;;;;;;10.28;54.55;101321.94;4909148;28;100402;-58
2021/04/25 02:44:35;;;;;;;8.25;4.97;;;;;;;10.27;54.84;101331.09;4909651;28;98777;-61
2021/04/25 02:47:01;;;;;;;7.68;4.65;;;;;;;10.28;54.16;101335.41;4907845;28;128309;-61
2021/04/25 02:49:27;;;;;;;6.13;4.30;;;;;;;10.27;54.55;101327.56;4908580;28;98324;-61
2021/04/25 02:51:54;;;;;;;6.45;4.45;;;;;;;10.27;53.90;101327.56;4907610;28;117522;-61
2021/04/25 02:54:20;;;;;;;7.68;4.53;;;;;;;10.24;54.29;101331.53;4908732;28;98732;-58
2021/04/25 02:56:46;;;;;;;8.05;4.70;;;;;;;10.26;54.73;101342.13;4908057;28;99057;-61
2021/04/25 02:59:12;;;;;;;7.07;4.63;;;;;;;10.25;54.51;101341.28;4926849;28;97855;-62
2021/04/25 03:01:38;;;;;;;6.70;4.60;;;;;;;10.24;54.24;101344.19;4907523;28;118668;-61
2021/04/25 03:04:04;;;;;;;6.43;4.10;;;;;;;10.27;54.26;101349.94;4907310;28;126679;-61
2021/04/25 03:06:30;;;;;;;5.95;4.30;;;;;;;10.26;54.51;101342.13;4908865;28;98412;-61
2021/04/25 03:08:56;;;;;;;6.90;4.20;;;;;;;10.25;54.12;101346.66;4908081;28;127536;-59
2021/04/25 03:11:22;;;;;;;5.68;4.53;;;;;;;10.23;54.50;101335.28;4907440;28;117683;-61
2021/04/25 03:13:49;;;;;;;6.25;4.32;;;;;;;10.24;54.05;101334.22;4908356;28;97927;-58
2021/04/25 03:16:15;;;;;;;5.50;4.20;;;;;;;10.24;54.45;101336.91;4906769;28;126706;-59
2021/04/25 03:18:41;;;;;;;6.18;4.10;;;;;;;10.22;54.28;101336.38;4908092;28;97984;-59
2021/04/25 03:21:07;;;;;;;8.18;4.72;;;;;;;10.23;54.51;101332.59;4908870;28;98324;-59
2021/04/25 03:23:33;;;;;;;6.65;3.90;;;;;;;10.22;54.89;101333.66;4908085;28;128668;-61
2021/04/25 03:25:59;;;;;;;6.60;4.53;;;;;;;10.22;54.22;101336.38;4903886;28;129627;-61
2021/04/25 03:28:25;;;;;;;7.50;4.10;;;;;;;10.21;54.61;101333.91;4904189;28;127853;-59
2021/04/25 03:30:51;;;;;;;5.75;3.95;;;;;;;10.21;54.60;101337.41;4904373;28;117970;-61
2021/04/25 03:33:17;;;;;;;5.35;4.10;;;;;;;10.21;54.83;101332.00;4904779;28;112264;-61
2021/04/25 03:35:43;;;;;;;6.90;4.05;;;;;;;10.21;54.97;101334.72;4904162;28;128090;-61
2021/04/25 03:38:09;;;;;;;5.85;4.30;;;;;;;10.21;54.81;101336.59;4903813;28;126542;-61
2021/04/25 03:40:35;;;;;;;5.20;3.75;;;;;;;10.22;54.85;101335.56;4903398;28;97818;-58
2021/04/25 03:43:01;;;;;;;6.15;3.80;;;;;;;10.26;54.87;101332.16;4904145;28;114288;-61
2021/04/25 03:45:27;;;;;;;5.20;3.60;;;;;;;10.32;54.53;101325.75;4904780;28;98297;-61
2021/04/25 03:47:53;;;;;;;5.80;3.90;;;;;;;10.39;54.49;101327.50;4917392;28;127093;-58
2021/04/25 03:50:24;;;;;;;6.32;4.00;;;;;;;10.42;54.26;101330.53;4918187;28;117426;-61
2021/04/25 03:52:50;;;;;;;5.93;3.67;;;;;;;10.46;54.01;101331.66;4904814;28;98708;-61
2021/04/25 03:55:17;;;;;;;5.68;3.85;;;;;;;10.45;54.17;101335.44;4903746;28;128474;-59
2021/04/25 03:57:43;;;;;;;5.30;3.97;;;;;;;10.49;54.11;101338.41;4904354;28;97829;-61
2021/04/25 04:00:11;;;;;;;6.35;3.80;;;;;;;10.48;54.43;101337.59;4902032;28;112774;-61
2021/04/25 04:02:38;;;;;;;5.03;3.35;;;;;;;10.49;53.81;101338.41;4904360;28;98965;-59
2021/04/25 04:05:04;;;;;;;5.63;3.72;;;;;;;10.51;54.11;101336.31;4905112;28;98374;-59
2021/04/25 04:07:31;;;;;;;5.18;3.50;;;;;;;10.49;53.81;101333.88;4904618;28;97832;-59
2021/04/25 04:09:57;;;;;;;5.53;3.72;;;;;;;10.48;53.79;101324.13;4904137;28;105572;-58
2021/04/25 04:12:23;;;;;;;7.03;3.72;;;;;;;10.49;53.84;101333.88;4901324;28;127561;-58
2021/04/25 04:14:50;;;;;;;5.32;3.80;;;;;;;10.51;54.36;101328.22;4902900;28;128869;-58
2021/04/25 04:17:17;;;;;;;5.55;3.42;;;;;;;10.49;54.56;101336.56;4904328;28;98574;-61
2021/04/25 04:19:43;;;;;;;5.25;3.75;;;;;;;10.52;54.16;101338.75;4903890;28;97679;-60
2021/04/25 04:22:09;;;;;;;4.40;3.50;;;;;;;10.52;54.65;101332.53;4903432;28;128166;-59
2021/04/25 04:24:35;;;;;;;3.97;3.47;;;;;;;10.53;54.26;101331.47;4901751;28;128123;-61
2021/04/25 04:27:01;;;;;;;5.65;3.80;;;;;;;10.53;53.81;101334.16;4903656;28;106104;-61
2021/04/25 04:29:28;;;;;;;5.78;3.60;;;;;;;10.55;54.23;101329.38;4869401;28;116905;-58
2021/04/25 04:31:54;;;;;;;6.47;3.92;;;;;;;10.55;54.32;101334.75;4903999;28;98765;-59
2021/04/25 04:34:20;;;;;;;5.32;3.58;;;;;;;10.54;54.18;101335.81;4901841;28;99229;-61
2021/04/25 04:36:47;;;;;;;5.20;3.50;;;;;;;10.54;54.02;101342.03;4903512;28;106714;-58
2021/04/25 04:39:13;;;;;;;4.70;3.30;;;;;;;10.56;54.54;101347.16;4903976;28;97882;-58
2021/04/25 04:41:39;;;;;;;5.72;3.70;;;;;;;10.57;54.21;101351.50;4903755;28;105255;-61
2021/04/25 04:44:05;;;;;;;6.13;3.72;;;;;;;10.57;54.93;101344.25;4903943;28;99464;-61
2021/04/25 04:46:31;;;;;;;4.78;3.80;;;;;;;10.60;54.55;101340.22;4902207;28;128464;-61
2021/04/25 04:48:57;;;;;;;5.35;3.85;;;;;;;10.63;54.59;101347.81;4901811;28;117814;-59
2021/04/25 04:51:23;;;;;;;5.82;3.60;;;;;;;10.66;54.44;101343.81;4902298;28;128358;-61
2021/04/25 04:53:49;;;;;;;4.57;3.38;;;;;;;10.65;54.26;101345.72;4901502;28;116885;-61
2021/04/25 04:56:16;;;;;;;5.30;3.55;;;;;;;10.69;54.99;101346.00;4916697;28;127515;-59
2021/04/25 04:58:43;;;;;;;4.68;3.47;;;;;;;10.69;54.75;101348.69;4903710;28;99317;-61
2021/04/25 05:01:09;;;;;;;5.45;3.22;;;;;;;10.71;54.46;101350.09;4885161;28;98579;-61
2021/04/25 05:03:35;;;;;;;5.18;3.47;;;;;;;10.75;54.73;101345.03;4903698;28;98524;-62
2021/04/25 05:06:01;;;;;;;5.72;3.92;;;;;;;10.79;54.14;101344.28;4900402;28;126930;-61
2021/04/25 05:08:27;;;;;;;5.82;3.60;;;;;;;10.80;55.15;101339.72;4903429;28;117902;-61
2021/04/25 05:10:53;;;;;;;5.88;3.97;;;;;;;10.84;54.17;101345.41;4901022;28;121644;-58
2021/04/25 05:13:19;;;;;;;5.25;3.83;;;;;;;10.85;54.89;101347.91;4902537;28;127290;-58
2021/04/25 05:15:45;;;;;;;5.30;3.45;;;;;;;10.86;55.01;101351.41;4901946;28;128318;-58
2021/04/25 05:18:12;;;;;;;6.18;3.80;;;;;;;10.92;54.26;101348.50;4903755;28;99056;-58
2021/04/25 05:20:38;;;;;;;4.75;3.60;;;;;;;10.92;54.96;101347.69;4902445;28;127744;-58
2021/04/25 05:23:04;;;;;;;5.70;3.45;;;;;;;10.94;55.20;101351.78;4900682;28;128242;-58
2021/04/25 05:25:30;;;;;;;5.65;3.60;;;;;;;10.98;54.64;101355.63;4902850;28;97871;-61
2021/04/25 05:27:57;;;;;;;5.50;3.45;;;;;;;11.01;55.11;101357.03;4902910;28;97699;-59
2021/04/25 05:30:23;;;;;;;5.20;3.10;;;;;;;11.01;55.17;101368.63;4902563;28;98255;-61
2021/04/25 05:32:49;;;;;;;6.72;4.05;;;;;;;11.07;54.98;101358.72;4901747;28;127249;-59
2021/04/25 05:35:15;;;;;;;6.38;3.20;;;;;;;11.07;54.79;101364.91;4902650;28;109545;-59
2021/04/25 05:37:41;;;;;;;4.93;3.35;;;;;;;11.14;54.28;101358.53;4901969;28;97748;-59
2021/04/25 05:40:09;;;;;;;4.10;3.28;;;;;;;11.19;54.74;101356.72;4901568;28;127345;-59
2021/04/25 05:42:35;;;;;;;5.38;3.72;;;;;;;11.20;54.89;101366.47;4902287;28;108718;-59
2021/04/25 05:45:01;;;;;;;6.40;3.70;;;;;;;11.26;54.44;101373.53;4901030;28;127876;-61
2021/04/25 05:47:28;;;;;;;5.10;3.20;;;;;;;11.30;54.76;101373.84;4902908;28;97816;-59
2021/04/25 05:49:54;;;;;;;4.90;3.60;;;;;;;11.32;55.07;101366.34;4901051;28;127844;-60
2021/04/25 05:52:20;;;;;;;4.65;3.10;;;;;;;11.37;54.34;101357.50;4902388;28;98413;-59
2021/04/25 05:54:46;;;;;;;4.60;3.13;;;;;;;11.42;54.67;101363.75;4900339;28;128910;-58
2021/04/25 05:57:12;;;;;;;5.28;3.15;;;;;;;11.47;54.65;101360.28;4913321;28;117204;-61
2021/04/25 05:59:38;;;;;;;4.80;3.22;;;;;;;11.52;54.73;101350.38;4897117;28;98550;-59
2021/04/25 06:02:05;;;;;;;5.20;3.42;;;;;;;11.58;54.73;101348.56;4896586;28;115454;-58
2021/04/25 06:04:31;;;;;;;8.20;4.43;;;;;;;11.64;54.43;101352.16;4897244;28;97901;-61
2021/04/25 06:06:58;;;;;;;7.53;4.90;;;;;;;11.71;54.36;101350.03;4897105;28;97915;-59
2021/04/25 06:09:24;;;;;;;7.55;4.80;;;;;;;11.76;54.06;101347.41;4864870;28;116510;-61
2021/04/25 06:11:50;;;;;;;8.07;5.00;;;;;;;11.78;54.28;101345.25;4898382;28;121714;-59
2021/04/25 06:14:16;;;;;;;7.35;4.80;;;;;;;11.86;54.39;101352.94;4895600;28;127652;-59
2021/04/25 06:16:42;;;;;;;8.25;4.57;;;;;;;11.89;54.03;101355.13;4896976;28;98550;-59
2021/04/25 06:19:08;;;;;;;7.68;4.53;;;;;;;11.96;54.03;101355.75;4896170;28;128960;-61
2021/04/25 06:21:37;;;;;;;7.65;4.63;;;;;;;12.03;54.28;101345.56;4895893;28;127519;-60
2021/04/25 06:24:04;;;;;;;6.65;4.43;;;;;;;12.10;53.84;101350.75;4898165;28;117641;-59
2021/04/25 06:26:30;;;;;;;6.70;4.13;;;;;;;12.22;54.13;101346.00;4898474;28;105802;-61
2021/04/25 06:28:56;;;;;;;6.88;4.68;;;;;;;12.31;53.78;101332.03;4898057;28;123608;-61
2021/04/25 06:31:22;;;;;;;7.38;4.05;;;;;;;12.38;53.62;101341.56;4898745;28;98434;-59
2021/04/25 06:33:49;;;;;;;8.93;4.15;;;;;;;12.50;53.39;101344.06;4898728;28;98327;-59
2021/04/25 06:36:15;;;;;;;7.43;4.07;;;;;;;12.56;53.39;101343.03;4898508;28;98012;-59
2021/04/25 06:38:41;;;;;;;7.85;3.88;;;;;;;12.61;53.54;101345.75;4897938;28;127939;-62
2021/04/25 06:41:07;;;;;;;5.20;3.58;;;;;;;12.69;53.46;101339.91;4895909;28;109471;-61
2021/04/25 06:43:33;;;;;;;6.38;3.42;;;;;;;12.75;53.40;101343.44;4898300;28;126892;-61
2021/04/25 06:46:00;;;;;;;5.25;3.65;;;;;;;12.88;53.09;101350.28;4897655;28;98097;-61
2021/04/25 06:48:27;;;;;;;5.35;3.58;;;;;;;12.94;53.01;101344.63;4898705;28;97985;-59
2021/04/25 06:50:53;;;;;;;5.35;3.40;;;;;;;13.01;53.12;101347.94;4896497;28;128337;-61
2021/04/25 06:53:19;;;;;;;7.22;3.63;;;;;;;13.15;52.77;101350.16;4896157;28;108479;-59
2021/04/25 06:55:45;;;;;;;5.75;3.25;;;;;;;13.39;52.23;101345.97;4898620;28;98235;-61
2021/04/25 06:58:11;;;;;;;5.00;3.30;;;;;;;13.54;51.54;101352.53;4897165;28;127887;-59
2021/04/25 07:00:37;;;;;;;6.35;3.50;;;;;;;13.67;51.52;101339.28;4896899;28;128632;-61
2021/04/25 07:03:03;;;;;;;5.10;3.17;;;;;;;13.89;51.64;101349.09;4882795;28;106980;-62
2021/04/25 07:05:29;;;;;;;5.70;3.47;;;;;;;14.14;50.52;101342.91;4901955;28;97980;-61
2021/04/25 07:07:58;;;;;;;4.55;2.92;;;;;;;14.39;49.48;101345.63;4900118;28;98438;-59
2021/04/25 07:10:25;;;;;;;4.82;3.10;;;;;;;14.73;48.70;101339.66;4901763;28;98777;-59
2021/04/25 07:12:51;;;;;;;4.75;2.97;;;;;;;14.92;47.78;101345.31;4901880;28;98642;-62
2021/04/25 07:15:17;;;;;;;5.10;2.80;;;;;;;15.32;46.70;101341.66;4901123;28;116624;-61
2021/04/25 07:17:43;;;;;;;4.25;2.78;;;;;;;15.48;46.34;101342.41;4902042;28;98877;-62
2021/04/25 07:20:10;;;;;;;4.05;2.67;;;;;;;15.74;44.83;101343.13;4901275;28;98551;-61
2021/04/25 07:22:37;;;;;;;4.10;2.63;;;;;;;16.04;44.43;101335.88;4901183;28;99086;-60
2021/04/25 07:25:04;;;;;;;4.20;2.70;;;;;;;16.44;43.39;101338.28;4901834;28;97904;-60
2021/04/25 07:27:30;;;;;;;4.82;2.33;;;;;;;16.67;43.67;101347.59;4900511;28;116638;-62
2021/04/25 07:29:56;;;;;;;3.60;2.50;;;;;;;16.98;44.00;101346.47;4901421;28;101501;-60
2021/04/25 07:32:22;;;;;;;3.80;2.15;;;;;;;17.26;46.13;101344.81;4899775;28;128943;-60
2021/04/25 07:34:48;;;;;;;3.67;1.92;;;;;;;17.51;44.34;101340.97;4899564;28;117723;-60
2021/04/25 07:37:14;;;;;;;3.72;1.92;;;;;;;17.55;44.96;101347.44;4899918;28;126859;-62
2021/04/25 07:39:40;;;;;;;3.92;2.20;;;;;;;17.91;44.76;101345.88;4901678;28;97964;-60
2021/04/25 07:42:07;;;;;;;3.97;2.00;;;;;;;18.19;44.74;101351.44;4900831;28;111331;-60
2021/04/25 07:44:34;;;;;;;3.03;1.67;;;;;;;18.74;44.20;101340.72;4901945;28;97913;-62
2021/04/25 07:47:00;;;;;;;2.97;1.65;;;;;;;18.91;43.88;101336.59;4882688;28;100462;-62
2021/04/25 07:49:26;;;;;;;2.75;1.70;;;;;;;18.89;43.97;101336.88;4897984;28;98175;-63
2021/04/25 07:51:52;;;;;;;2.97;1.70;;;;;;;18.75;43.94;101339.63;4896323;28;126907;-62
2021/04/25 07:54:18;;;;;;;2.45;1.50;;;;;;;18.91;44.06;101347.53;4862294;28;114200;-60
2021/04/25 07:56:44;;;;;;;2.58;1.38;;;;;;;20.16;42.26;101341.59;4896310;28;128187;-61
2021/04/25 07:59:10;;;;;;;2.80;1.48;;;;;;;20.46;42.46;101344.66;4900437;28;98802;-60
2021/04/25 08:01:37;;;;;;;1.90;1.25;;;;;;;21.70;40.27;101332.75;4900189;28;97974;-64
2021/04/25 08:04:03;;;;;;;2.78;1.42;;;;;;;23.18;37.63;101333.28;4899741;28;117376;-63
2021/04/25 08:06:29;;;;;;;2.40;1.20;;;;;;;23.50;37.18;101342.78;4900096;28;113933;-63
2021/04/25 08:08:55;;;;;;;2.22;1.00;;;;;;;23.44;37.38;101355.16;4899082;28;128150;-63
2021/04/25 08:11:22;;;;;;;2.15;0.77;;;;;;;23.70;36.70;101352.25;4896037;28;127641;-61
2021/04/25 08:13:48;;;;;;;1.55;0.80;;;;;;;25.11;34.28;101349.41;4900451;28;98112;-64
2021/04/25 08:16:14;;;;;;;1.35;0.70;;;;;;;25.09;34.23;101351.72;4898805;28;99132;-61
2021/04/25 08:18:40;;;;;;;1.73;0.70;;;;;;;25.76;33.32;101360.47;4900498;28;104595;-64
2021/04/25 08:21:07;;;;;;;1.50;0.68;;;;;;;26.45;32.27;101372.38;4900420;28;98365;-64
2021/04/25 08:23:34;;;;;;;2.10;0.73;;;;;;;27.28;31.52;101361.44;4899118;28;98211;-61
2021/04/25 08:26:00;;;;;;;1.60;0.52;;;;;;;26.42;33.00;101370.28;4899650;28;98182;-61
2021/04/25 08:28:26;;;;;;;2.03;0.52;;;;;;;25.95;33.29;101373.69;4901051;28;98208;-61
2021/04/25 08:30:52;;;;;;;1.10;0.40;;;;;;;25.61;34.09;101361.19;4898361;28;108945;-61
2021/04/25 08:33:18;;;;;;;1.75;0.43;;;;;;;26.05;33.06;101364.09;4900798;28;97830;-63
2021/04/25 08:35:45;;;;;;;1.45;0.43;;;;;;;25.41;33.75;101368.47;4898837;28;128347;-61
2021/04/25 08:38:11;;;;;;;1.55;0.50;;;;;;;24.86;34.93;101365.09;4896473;28;126620;-63
2021/04/25 08:40:37;;;;;;;1.05;0.38;;;;;;;24.61;35.57;101353.22;4899619;28;98611;-63
2021/04/25 08:43:03;;;;;;;1.42;0.35;;;;;;;24.45;36.04;101357.78;4900424;28;97837;-63
2021/04/25 08:45:29;;;;;;;0.98;0.30;;;;;;;25.83;33.18;101349.69;4900412;28;98544;-63
2021/04/25 08:47:58;;;;;;;0.90;0.30;;;;;;;26.36;32.66;101344.84;4900256;28;107717;-60
2021/04/25 08:50:28;;;;;;;0.93;0.38;;;;;;;26.12;32.91;101350.50;4900317;28;98228;-61
2021/04/25 08:52:54;;;;;;;1.67;0.30;;;;;;;25.32;33.86;101359.53;4900801;28;97948;-61
2021/04/25 08:55:21;;;;;;;1.88;0.30;;;;;;;25.05;34.79;101348.00;4881956;28;98978;-61
2021/04/25 08:57:48;;;;;;;2.33;0.30;;;;;;;25.27;34.26;101348.69;4900290;28;99143;-61
2021/04/25 09:00:15;;;;;;;1.55;0.30;;;;;;;25.24;33.56;101352.19;4899503;28;97905;-61
2021/04/25 09:02:41;;;;;;;1.10;0.30;;;;;;;24.36;35.85;101343.25;4899698;28;97920;-63
2021/04/25 09:05:07;;;;;;;1.60;0.30;;;;;;;24.10;36.46;101343.50;4900606;28;97962;-61
2021/04/25 09:07:33;;;;;;;0.73;0.28;;;;;;;24.20;34.68;101341.13;4899167;28;118834;-61
2021/04/25 09:10:08;;;;;;;2.20;0.43;;;;;;;23.77;35.97;101342.31;4900363;28;97841;-60
2021/04/25 09:12:44;;;;;;;1.33;0.30;;;;;;;23.68;36.01;101338.81;4899653;28;98096;-60
2021/04/25 09:15:10;;;;;;;1.60;0.30;;;;;;;24.59;34.90;101336.22;4898596;28;98446;-61
2021/04/25 09:17:52;;;;;;;1.90;0.30;;;;;;;24.53;35.39;101334.03;4899965;28;98771;-63
2021/04/25 09:20:20;;;;;;;1.20;0.30;;;;;;;23.81;37.27;101342.44;4899097;28;115473;-61
2021/04/25 09:22:52;;;;;;;0.80;0.30;;;;;;;23.24;37.94;101338.28;4899178;28;98217;-63
2021/04/25 09:25:19;;;;;;;1.65;0.30;;;;;;;22.73;38.88;101340.09;4881222;28;98630;-63
2021/04/25 09:27:47;;;;;;;1.77;0.35;;;;;;;22.29;39.25;101347.63;4899877;28;98938;-63
2021/04/25 09:30:23;;;;;;;1.30;0.38;;;;;;;21.78;39.65;101351.97;4898908;28;112203;-63
2021/04/25 09:32:58;;;;;;;2.50;0.40;;;;;;;21.52;38.64;101340.97;4898396;28;97991;-63
2021/04/25 09:35:25;;;;;;;1.88;0.40;;;;;;;21.37;38.58;101344.16;4882504;28;115963;-60
2021/04/25 09:37:51;;;;;;;1.65;0.32;;;;;;;21.20;39.18;101342.16;4864823;28;120712;-60
2021/04/25 09:40:24;;;;;;;1.35;0.40;;;;;;;22.02;37.85;101346.00;4898451;28;126997;-62
2021/04/25 09:43:11;;;;;;;1.15;0.35;;;;;;;22.46;37.11;101335.78;4900480;28;97916;-60
2021/04/25 09:45:57;;;;;;;1.00;0.30;;;;;;;25.64;32.08;101328.19;4899467;28;98994;-63
2021/04/25 09:48:26;;;;;;;1.30;0.30;;;;;;;30.09;25.76;101321.22;4899088;28;99310;-64
2021/04/25 09:51:11;;;;;;;0.90;0.30;;;;;;;33.32;22.10;101334.72;4898660;28;98314;-64
2021/04/25 09:53:57;;;;;;;1.00;0.30;;;;;;;35.17;20.11;101336.47;4899647;28;97897;-64
2021/04/25 09:56:39;;;;;;;1.23;0.30;;;;;;;36.35;19.01;101349.03;4898294;28;113750;-64
2021/04/25 09:59:07;;;;;;;0.93;0.20;;;;;;;35.18;21.08;101340.06;4898175;28;99607;-62
2021/04/25 10:01:38;;;;;;;0.93;0.20;;;;;;;33.45;23.19;101336.72;4897696;28;98173;-59
2021/04/25 10:04:25;;;;;;;1.30;0.20;;;;;;;30.89;26.12;101326.41;4900247;28;97851;-61
2021/04/25 10:06:53;;;;;;;0.95;0.30;;;;;;;28.99;27.74;101328.06;4898804;28;97955;-64
2021/04/25 10:09:19;;;;;;;2.13;0.28;;;;;;;27.50;29.88;101332.28;4899260;28;105082;-64
2021/04/25 10:11:53;;;;;;;1.20;0.20;;;;;;;26.49;31.30;101330.97;4897883;28;98411;-60
2021/04/25 10:14:19;;;;;;;1.63;0.30;;;;;;;25.65;31.62;101331.75;4882689;28;98065;-63
2021/04/25 10:16:45;;;;;;;1.05;0.30;;;;;;;24.83;33.59;101327.19;4895848;28;110593;-63
2021/04/25 10:19:12;;;;;;;2.00;0.30;;;;;;;25.42;32.45;101328.69;4899230;28;99353;-61
2021/04/25 10:21:39;;;;;;;1.05;0.30;;;;;;;26.06;31.10;101318.78;4898821;28;98236;-61
2021/04/25 10:24:08;;;;;;;0.63;0.30;;;;;;;28.45;27.36;101312.44;4899970;28;97937;-61
2021/04/25 10:26:39;;;;;;;0.85;0.30;;;;;;;32.69;21.76;101312.03;4898664;28;98972;-61
2021/04/25 10:29:07;;;;;;;0.93;0.20;;;;;;;32.29;23.09;101319.53;4896552;28;118572;-64
2021/04/25 10:31:35;;;;;;;1.23;0.30;;;;;;;31.27;24.59;101327.06;4896773;28;110367;-61
2021/04/25 10:34:16;;;;;;;1.30;0.20;;;;;;;31.54;24.53;101316.50;4866643;28;98174;-64
2021/04/25 10:36:50;;;;;;;0.82;0.20;;;;;;;29.42;26.93;101321.16;4901720;28;99428;-63
2021/04/25 10:39:52;;;;;;;0.57;0.20;;;;;;;27.97;28.68;101311.94;4903282;28;99090;-64
2021/04/25 10:42:20;;;;;;;0.85;0.20;;;;;;;26.82;30.70;101323.16;4901805;28;98140;-61
2021/04/25 10:45:05;;;;;;;1.95;0.20;;;;;;;25.91;31.44;101323.88;4901804;28;97896;-63
2021/04/25 10:47:35;;;;;;;1.20;0.28;;;;;;;25.16;32.17;101321.59;4901522;28;99160;-60
2021/04/25 10:50:22;;;;;;;1.17;0.30;;;;;;;24.56;32.74;101317.59;4884338;28;99289;-63
2021/04/25 10:52:50;;;;;;;1.65;0.30;;;;;;;23.99;33.82;101321.09;4901808;28;98538;-63
2021/04/25 10:55:18;;;;;;;1.75;0.30;;;;;;;23.59;34.11;101320.75;4899514;28;98058;-60
2021/04/25 10:57:53;;;;;;;1.10;0.30;;;;;;;24.04;33.83;101318.13;4901882;28;98825;-60
2021/04/25 11:03:07;;;;;;;0.98;0.30;;;;;;;27.86;28.07;101301.44;4901076;28;97969;-61
2021/04/25 11:05:45;;;;;;;1.52;0.30;;;;;;;27.31;29.36;101308.94;4899327;28;97861;-61
2021/04/25 11:08:18;;;;;;;1.35;0.20;;;;;;;27.08;30.67;101314.31;4901787;28;99205;-63
2021/04/25 11:10:49;;;;;;;1.15;0.28;;;;;;;26.33;31.19;101317.94;4902133;28;99107;-63
2021/04/25 11:13:34;;;;;;;1.23;0.30;;;;;;;26.06;30.84;101314.03;4901042;28;98553;-60
2021/04/25 11:16:13;;;;;;;1.27;0.20;;;;;;;25.68;31.29;101318.06;4901943;28;97910;-61
2021/04/25 11:19:09;;;;;;;0.90;0.20;;;;;;;25.71;31.58;101324.84;4901996;28;97904;-63
2021/04/25 11:21:50;;;;;;;1.95;0.20;;;;;;;26.43;31.02;101311.88;4901144;28;99221;-63
2021/04/25 11:24:16;;;;;;;1.17;0.20;;;;;;;26.00;31.93;101314.63;4901392;28;98481;-63
2021/04/25 11:26:47;;;;;;;0.73;0.22;;;;;;;25.30;33.45;101317.66;4901900;28;97846;-63